Time;durP1;ratioP1;P1;durP2;ratioP2;P2;SDS_P1;SDS_P2;PMS_P1;PMS_P2;Temp;Humidity;BMP_temperature;BMP_pressure;BME280_temperature;BME280_humidity;BME280_pressure;Samples;Min_cycle;Max_cycle;Signal;HPM_P1;HPM_P2
2020/12/04 00:04:20;;;;;;;85.87;36.40;;;;;;;-0.33;84.06;99507.14;4817544;58;1138371;-81
2020/12/04 00:09:26;;;;;;;93.27;40.30;;;;;;;-0.25;84.12;99500.25;4851190;59;1138403;-81
2020/12/04 00:14:31;;;;;;;99.13;41.13;;;;;;;-0.20;84.39;99493.08;4811179;59;1138775;-81
2020/12/04 00:19:37;;;;;;;89.40;36.77;;;;;;;-0.11;84.32;99489.55;4802669;60;1138471;-81
2020/12/04 00:24:42;;;;;;;91.37;39.73;;;;;;;-0.06;84.35;99484.13;4811394;59;1138237;-82
2020/12/04 00:29:48;;;;;;;82.20;35.23;;;;;;;-0.03;84.67;99488.71;4874223;58;1138142;-81
2020/12/04 00:34:54;;;;;;;75.20;35.33;;;;;;;0.04;84.62;99493.58;4843876;59;1138281;-81
2020/12/04 00:39:59;;;;;;;79.47;34.53;;;;;;;0.09;84.92;99494.20;4811716;59;1136617;-81
2020/12/04 00:45:07;;;;;;;82.05;36.38;;;;;;;0.11;84.76;99488.01;4816467;59;1136389;-81
2020/12/04 00:50:13;;;;;;;78.80;34.85;;;;;;;0.19;84.85;99488.89;4726090;60;1136619;-81
2020/12/04 00:55:19;;;;;;;77.73;36.40;;;;;;;0.22;84.75;99493.48;4743667;61;1136259;-81
2020/12/04 01:00:26;;;;;;;83.53;35.37;;;;;;;0.28;84.70;99476.28;4725478;61;1136294;-81
2020/12/04 01:05:31;;;;;;;82.27;35.73;;;;;;;0.34;84.84;99470.73;4762434;60;1136152;-81
2020/12/04 01:10:36;;;;;;;78.80;35.37;;;;;;;0.38;84.95;99466.68;4817693;62;21088;-81
2020/12/04 01:15:42;;;;;;;77.53;36.73;;;;;;;0.43;84.90;99463.39;4762397;60;1132126;-81
2020/12/04 01:20:47;;;;;;;76.60;32.73;;;;;;;0.47;85.01;99451.87;4726251;60;1136409;-81
2020/12/04 01:25:53;;;;;;;69.93;32.50;;;;;;;0.47;85.11;99444.91;4781317;60;1134099;-81
2020/12/04 01:30:58;;;;;;;80.47;35.07;;;;;;;0.51;85.09;99447.73;4725975;60;1136510;-84
2020/12/04 01:36:05;;;;;;;71.00;34.87;;;;;;;0.56;85.15;99436.63;4725574;61;1136734;-82
2020/12/04 01:41:10;;;;;;;84.70;34.38;;;;;;;0.58;85.12;99423.55;4830562;59;1136490;-81
2020/12/04 01:46:16;;;;;;;74.37;32.77;;;;;;;0.63;84.93;99415.85;4788522;60;1136589;-82
2020/12/04 01:51:23;;;;;;;75.07;35.37;;;;;;;0.67;84.96;99412.63;4728316;60;1136130;-81
2020/12/04 01:56:38;;;;;;;76.53;33.97;;;;;;;0.67;84.78;99410.86;4821924;60;1136324;-81
2020/12/04 02:01:44;;;;;;;;;;;;;;;0.69;84.94;99402.52;4726839;60;1136170;-82
2020/12/04 02:07:12;;;;;;;66.57;29.20;;;;;;;0.72;85.06;99390.27;4800690;61;965322;-81
2020/12/04 02:12:20;;;;;;;63.53;27.70;;;;;;;0.70;85.61;99378.64;4809928;60;1134283;-81
2020/12/04 02:17:34;;;;;;;64.47;32.00;;;;;;;0.70;85.81;99369.53;4794567;60;1136303;-81
2020/12/04 02:22:40;;;;;;;72.15;32.30;;;;;;;0.72;85.49;99362.94;4795300;60;1136354;-81
2020/12/04 02:27:50;;;;;;;78.10;34.87;;;;;;;0.70;86.04;99363.86;4831606;59;1136266;-81
2020/12/04 02:32:56;;;;;;;67.90;31.97;;;;;;;0.73;85.84;99360.26;4830972;59;1136439;-81
2020/12/04 02:38:02;;;;;;;73.47;31.57;;;;;;;0.75;85.76;99364.92;4725467;60;1136636;-82
2020/12/04 02:43:07;;;;;;;69.67;33.50;;;;;;;0.76;86.06;99355.34;4723962;60;1136628;-82
2020/12/04 02:48:13;;;;;;;77.17;33.95;;;;;;;0.75;86.08;99343.27;4762708;60;1136354;-82
2020/12/04 02:53:19;;;;;;;58.43;26.40;;;;;;;0.75;86.25;99338.89;4725432;60;1136479;-82
2020/12/04 02:58:24;;;;;;;68.17;31.70;;;;;;;0.77;86.32;99332.27;4743133;60;1136192;-81
2020/12/04 03:03:29;;;;;;;70.27;31.60;;;;;;;0.74;86.34;99317.70;4725111;60;1136333;-82
2020/12/04 03:08:35;;;;;;;57.57;24.30;;;;;;;0.76;86.08;99324.13;4725987;60;1136229;-81
2020/12/04 03:13:40;;;;;;;69.73;31.33;;;;;;;0.78;86.01;99315.27;4725628;60;1136417;-82
2020/12/04 03:18:46;;;;;;;70.10;30.47;;;;;;;0.77;85.88;99317.50;4725787;60;1136316;-82
2020/12/04 03:23:51;;;;;;;59.37;27.03;;;;;;;0.79;85.68;99310.45;4742930;60;1136126;-81
2020/12/04 03:28:57;;;;;;;60.53;26.20;;;;;;;0.82;85.52;99295.13;4725485;60;1136468;-82
2020/12/04 03:34:02;;;;;;;78.83;28.93;;;;;;;0.84;85.30;99294.13;4743452;60;1136203;-82
2020/12/04 03:39:08;;;;;;;68.90;26.80;;;;;;;0.84;85.18;99290.22;4725636;60;1136312;-81
2020/12/04 03:44:14;;;;;;;65.80;28.53;;;;;;;0.87;84.94;99269.69;4761861;60;1136215;-81
2020/12/04 03:49:20;;;;;;;65.50;30.30;;;;;;;0.87;84.53;99263.18;4749824;60;1136299;-82
2020/12/04 03:54:25;;;;;;;56.47;21.27;;;;;;;0.90;84.37;99259.94;4782074;59;1136347;-82
2020/12/04 03:59:31;;;;;;;61.77;28.47;;;;;;;0.94;83.69;99251.00;4819884;59;1136377;-82
2020/12/04 04:04:36;;;;;;;71.87;32.60;;;;;;;0.95;83.88;99253.98;4778500;59;1136357;-81
2020/12/04 04:09:42;;;;;;;66.33;28.80;;;;;;;0.97;83.56;99235.21;4820420;59;1136145;-82
2020/12/04 04:14:48;;;;;;;59.53;26.97;;;;;;;0.95;83.34;99238.36;4791541;60;1136465;-82
2020/12/04 04:19:53;;;;;;;60.93;27.40;;;;;;;0.97;83.05;99210.48;4818810;60;1136202;-82
2020/12/04 04:24:59;;;;;;;43.33;18.57;;;;;;;0.98;82.93;99206.95;4803502;60;1136275;-82
2020/12/04 04:30:05;;;;;;;62.57;25.70;;;;;;;0.98;83.01;99213.92;4804760;60;1136623;-82
2020/12/04 04:35:10;;;;;;;57.40;26.27;;;;;;;0.98;82.82;99202.20;4833475;59;1136269;-82
2020/12/04 04:40:16;;;;;;;61.98;27.37;;;;;;;0.97;82.76;99197.93;4788514;60;1136705;-81
2020/12/04 04:45:22;;;;;;;61.13;26.70;;;;;;;1.01;82.67;99189.02;4786286;59;1136343;-82
2020/12/04 04:50:28;;;;;;;40.40;19.87;;;;;;;1.02;82.59;99175.08;4785249;60;1136635;-82
2020/12/04 04:55:33;;;;;;;56.30;24.07;;;;;;;1.02;82.56;99172.01;4869331;59;1136137;-82
2020/12/04 05:00:39;;;;;;;45.60;20.57;;;;;;;1.04;82.30;99169.31;4925986;58;1136246;-82
2020/12/04 05:05:47;;;;;;;63.90;25.83;;;;;;;1.03;82.55;99161.97;4937279;59;1136291;-82
2020/12/04 05:10:56;;;;;;;57.37;26.00;;;;;;;1.05;82.37;99161.42;4924299;58;1136654;-83
2020/12/04 05:16:02;;;;;;;56.27;23.83;;;;;;;1.11;82.50;99158.89;4941965;58;1136690;-82
2020/12/04 05:21:07;;;;;;;58.45;27.37;;;;;;;1.10;82.48;99158.98;4895237;58;1136626;-82
2020/12/04 05:26:13;;;;;;;48.98;22.90;;;;;;;1.13;82.43;99168.75;4893183;58;1136300;-83
2020/12/04 05:31:18;;;;;;;67.20;30.97;;;;;;;1.13;82.32;99158.33;4853021;59;1136434;-83
2020/12/04 05:36:29;;;;;;;72.23;36.40;;;;;;;1.13;82.40;99144.02;4940335;58;1136195;-83
2020/12/04 05:41:48;;;;;;;57.03;25.27;;;;;;;1.19;82.39;99128.49;4941972;59;1136766;-82
2020/12/04 05:46:56;;;;;;;59.73;26.80;;;;;;;1.17;82.36;99124.67;4851689;59;1136330;-82
2020/12/04 05:52:01;;;;;;;50.63;22.53;;;;;;;1.21;82.41;99133.98;4870832;59;1136698;-82
2020/12/04 05:57:09;;;;;;;47.07;23.10;;;;;;;1.24;82.36;99135.07;4851982;59;1136283;-82
2020/12/04 06:02:15;;;;;;;59.08;28.57;;;;;;;1.24;82.43;99150.69;4884396;59;1136755;-82
2020/12/04 06:07:27;;;;;;;58.13;25.17;;;;;;;1.28;82.41;99143.08;4852533;59;1136357;-82
2020/12/04 06:12:31;;;;;;;53.53;24.73;;;;;;;1.32;82.48;99149.77;4852465;59;1136706;-82
2020/12/04 06:17:36;;;;;;;46.50;22.03;;;;;;;1.36;82.41;99153.03;4847221;59;1136405;-82
2020/12/04 06:22:46;;;;;;;54.00;27.70;;;;;;;1.37;82.37;99151.64;4966368;58;1136276;-82
2020/12/04 06:27:52;;;;;;;47.33;21.03;;;;;;;1.35;82.46;99152.20;4826913;59;1136477;-82
2020/12/04 06:32:57;;;;;;;44.33;18.67;;;;;;;1.37;82.44;99158.62;4877893;60;1136155;-82
2020/12/04 06:38:04;;;;;;;44.95;21.05;;;;;;;1.41;82.26;99163.98;4868461;60;1136748;-84
2020/12/04 06:43:12;;;;;;;45.12;19.87;;;;;;;1.43;82.37;99171.25;4850356;59;1136255;-83
2020/12/04 06:48:20;;;;;;;50.33;20.70;;;;;;;1.46;82.39;99176.73;4911830;59;1136536;-82
2020/12/04 06:53:26;;;;;;;43.30;20.23;;;;;;;1.49;82.20;99162.22;4913311;58;1136371;-82
2020/12/04 06:58:31;;;;;;;31.03;13.63;;;;;;;1.52;82.22;99163.34;4900730;59;1136414;-82
2020/12/04 07:03:38;;;;;;;37.63;16.93;;;;;;;1.50;82.28;99163.91;4896927;58;1136422;-82
2020/12/04 07:09:03;;;;;;;49.20;21.60;;;;;;;1.55;82.10;99170.95;4912957;58;1136356;-85
2020/12/04 07:14:09;;;;;;;45.05;20.77;;;;;;;1.60;82.12;99159.31;4820056;59;1136686;-83
2020/12/04 07:19:15;;;;;;;30.87;15.37;;;;;;;1.61;82.11;99167.97;4849194;60;1145949;-83
2020/12/04 07:24:20;;;;;;;53.12;22.14;;;;;;;1.63;82.01;99173.46;4817797;59;1136931;-84
2020/12/04 07:29:27;;;;;;;43.80;19.97;;;;;;;1.67;81.95;99159.78;4724493;60;1136591;-84
2020/12/04 07:34:36;;;;;;;39.10;18.07;;;;;;;1.66;81.87;99156.80;4820816;59;1136446;-85
2020/12/04 07:39:45;;;;;;;53.45;23.27;;;;;;;1.74;81.77;99163.66;4859526;59;1136591;-84
2020/12/04 07:44:54;;;;;;;45.60;21.03;;;;;;;1.78;81.67;99148.20;4839837;59;1136327;-85
2020/12/04 07:50:02;;;;;;;38.00;18.00;;;;;;;1.81;81.74;99153.23;4857928;59;1136547;-85
2020/12/04 07:55:10;;;;;;;34.07;15.20;;;;;;;1.85;81.41;99155.15;4851170;59;1136295;-85
2020/12/04 08:00:17;;;;;;;37.67;17.17;;;;;;;1.87;81.33;99157.19;4791158;60;1136344;-84
2020/12/04 08:05:23;;;;;;;33.80;17.12;;;;;;;1.90;81.21;99145.27;4826618;60;1136500;-84
2020/12/04 08:10:29;;;;;;;29.83;12.17;;;;;;;1.96;81.12;99139.21;4780108;60;1136662;-85
2020/12/04 08:15:34;;;;;;;33.97;14.60;;;;;;;1.98;81.00;99135.20;4781916;60;1136238;-85
2020/12/04 08:20:39;;;;;;;21.40;11.27;;;;;;;2.01;80.74;99134.52;4783601;60;1137180;-85
2020/12/04 08:25:45;;;;;;;37.80;17.67;;;;;;;2.08;80.85;99140.19;4717204;61;1136277;-84
2020/12/04 08:30:51;;;;;;;39.97;19.83;;;;;;;2.12;80.75;99137.75;4895781;58;1136230;-85
2020/12/04 08:35:56;;;;;;;28.13;13.63;;;;;;;2.24;80.32;99156.98;4873660;58;1136816;-86
2020/12/04 08:41:02;;;;;;;33.80;16.70;;;;;;;2.24;80.32;99156.98;4871944;59;1136449;-87
2020/12/04 08:46:29;;;;;;;32.93;16.33;;;;;;;2.27;80.94;99147.66;4925209;59;1134339;-87
2020/12/04 08:51:49;;;;;;;40.30;18.53;;;;;;;2.31;80.60;99145.19;4827760;60;1136400;-87
2020/12/04 08:57:01;;;;;;;32.70;16.53;;;;;;;2.34;80.58;99145.83;4810777;59;1136386;-87
2020/12/04 09:02:07;;;;;;;40.80;18.37;;;;;;;2.36;80.50;99143.12;4919969;60;21491;-87
2020/12/04 09:07:12;;;;;;;36.53;16.47;;;;;;;2.40;80.15;99139.38;4927964;60;21781;-87
2020/12/04 09:12:21;;;;;;;44.27;20.20;;;;;;;2.40;80.36;99140.22;4925194;60;21176;-87
2020/12/04 09:17:25;;;;;;;36.20;17.67;;;;;;;2.46;80.74;99145.02;4930135;60;21209;-87
2020/12/04 09:22:30;;;;;;;44.97;20.83;;;;;;;2.60;81.07;99155.84;4793118;61;1132358;-87
2020/12/04 09:27:37;;;;;;;39.67;18.67;;;;;;;2.70;81.22;99170.44;4851875;59;1136720;-87
2020/12/04 09:32:48;;;;;;;39.67;20.67;;;;;;;2.84;81.01;99162.51;4836263;59;1136621;-87
2020/12/04 09:37:54;;;;;;;42.10;19.92;;;;;;;2.99;81.20;99161.94;4846259;59;1136266;-86
2020/12/04 09:42:59;;;;;;;42.47;19.77;;;;;;;3.22;80.23;99157.73;4843138;60;1136622;-84
2020/12/04 09:48:05;;;;;;;64.87;29.83;;;;;;;3.37;79.80;99163.20;4865044;59;1136720;-86
2020/12/04 09:53:11;;;;;;;40.90;20.20;;;;;;;3.44;79.12;99165.77;4925036;58;1137231;-87
2020/12/04 09:58:16;;;;;;;106.25;44.75;;;;;;;3.52;78.42;99161.66;4868973;59;1136660;-86
2020/12/04 10:03:22;;;;;;;117.25;51.00;;;;;;;3.67;78.08;99144.52;4845950;60;1138699;-87
2020/12/04 10:08:28;;;;;;;105.03;44.83;;;;;;;3.67;78.08;99144.52;4869019;60;1138639;-87
2020/12/04 10:13:33;;;;;;;63.70;30.37;;;;;;;3.66;77.66;99131.13;4848895;59;1138364;-87
2020/12/04 10:18:39;;;;;;;63.57;29.43;;;;;;;3.66;77.24;99127.20;4961043;59;1136697;-87
2020/12/04 10:23:44;;;;;;;43.00;19.20;;;;;;;3.65;77.66;99132.90;4926540;58;1136174;-85
2020/12/04 10:28:50;;;;;;;44.83;21.00;;;;;;;3.68;77.84;99137.05;4918805;58;1136249;-87
2020/12/04 10:33:56;;;;;;;64.03;30.75;;;;;;;3.72;77.78;99135.89;4929369;58;1138523;-86
2020/12/04 10:39:02;;;;;;;51.93;26.00;;;;;;;3.73;78.13;99130.55;4914033;58;1136316;-87
2020/12/04 10:44:10;;;;;;;45.70;21.83;;;;;;;3.71;77.77;99125.07;4902066;59;1136684;-88
2020/12/04 10:49:15;;;;;;;37.57;20.70;;;;;;;3.77;77.64;99123.34;4864044;59;1136766;-88
2020/12/04 10:54:21;;;;;;;47.33;22.70;;;;;;;3.82;77.49;99112.89;4846552;60;1136511;-88
2020/12/04 10:59:26;;;;;;;44.85;20.62;;;;;;;3.85;77.68;99114.45;4915887;58;1136543;-88
2020/12/04 11:09:55;;;;;;;49.60;21.60;;;;;;;3.91;77.45;99104.03;4725563;61;1136566;-88
2020/12/04 11:15:01;;;;;;;50.63;22.03;;;;;;;4.02;77.51;99098.36;4763679;60;1136253;-88
2020/12/04 11:20:07;;;;;;;60.37;28.23;;;;;;;4.16;77.62;99092.11;4904298;58;1138313;-88
2020/12/04 11:25:12;;;;;;;46.00;22.37;;;;;;;4.31;77.21;99077.05;4920674;58;1136630;-88
2020/12/04 11:30:22;;;;;;;36.93;17.57;;;;;;;4.45;77.33;99086.84;4906947;58;1136802;-88
2020/12/04 11:35:27;;;;;;;44.40;21.87;;;;;;;4.68;76.04;99081.19;4760890;60;1138285;-88
2020/12/04 11:40:33;;;;;;;54.23;24.03;;;;;;;4.89;76.23;99089.17;4906084;58;1136486;-88
2020/12/04 11:45:38;;;;;;;44.67;19.27;;;;;;;5.06;74.36;99077.39;4917565;58;1136624;-89
2020/12/04 11:50:44;;;;;;;57.05;25.35;;;;;;;5.07;73.77;99074.65;4907373;58;1136682;-88
2020/12/04 11:55:50;;;;;;;58.00;24.73;;;;;;;4.93;74.57;99075.73;4818961;59;1136133;-88
2020/12/04 12:00:55;;;;;;;50.87;22.43;;;;;;;4.76;74.29;99067.49;4795546;59;1136164;-88
2020/12/04 12:06:01;;;;;;;53.37;22.33;;;;;;;4.65;75.14;99068.80;4850116;59;1136539;-88
2020/12/04 12:11:06;;;;;;;68.43;28.83;;;;;;;4.52;75.36;99076.76;4841964;59;1136625;-88
2020/12/04 12:16:12;;;;;;;101.83;44.77;;;;;;;4.47;75.92;99081.02;4885685;58;1138290;-88
2020/12/04 12:21:19;;;;;;;64.77;31.70;;;;;;;4.39;76.05;99072.93;4832676;59;1138456;-88
2020/12/04 12:26:24;;;;;;;46.43;24.83;;;;;;;4.38;76.36;99063.41;4831900;58;1136877;-88
2020/12/04 12:31:30;;;;;;;57.67;30.85;;;;;;;4.68;76.47;99067.27;4854770;58;1138368;-88
2020/12/04 12:36:36;;;;;;;46.30;23.23;;;;;;;5.37;74.41;99059.61;4841842;59;1136295;-88
2020/12/04 12:41:41;;;;;;;69.67;31.13;;;;;;;5.89;74.15;99068.09;4851516;59;1136319;-88
2020/12/04 12:46:47;;;;;;;40.07;21.83;;;;;;;5.86;73.01;99072.25;4891112;58;1136453;-88
2020/12/04 12:51:52;;;;;;;39.63;21.70;;;;;;;5.60;72.63;99066.97;4836530;59;1136665;-87
2020/12/04 12:56:59;;;;;;;64.30;33.43;;;;;;;5.70;73.02;99083.62;4828361;58;1136438;-87
2020/12/04 13:02:05;;;;;;;118.20;54.48;;;;;;;5.94;72.31;99065.95;4896931;59;1136145;-88
2020/12/04 13:07:11;;;;;;;69.33;32.37;;;;;;;5.75;72.58;99065.73;4881969;58;1138546;-87
2020/12/04 13:12:16;;;;;;;56.20;31.73;;;;;;;5.45;73.37;99069.50;4836783;59;1137141;-88
2020/12/04 13:17:22;;;;;;;90.75;38.10;;;;;;;5.22;74.16;99060.82;4850869;59;1148254;-87
2020/12/04 13:22:27;;;;;;;155.35;66.65;;;;;;;5.10;74.85;99066.56;4858670;59;1138333;-86
2020/12/04 13:27:35;;;;;;;163.57;79.87;;;;;;;5.00;75.41;99059.55;4861675;58;1138691;-87
2020/12/04 13:32:40;;;;;;;209.47;94.20;;;;;;;4.86;75.92;99054.91;4884323;58;1138272;-87
2020/12/04 13:37:46;;;;;;;138.30;50.67;;;;;;;4.78;76.19;99066.43;4867630;58;1138352;-88
2020/12/04 13:42:52;;;;;;;125.30;44.55;;;;;;;4.74;76.79;99067.61;4821199;59;1140456;-87
2020/12/04 13:47:57;;;;;;;336.20;101.80;;;;;;;4.69;77.06;99064.53;4906937;59;1138358;-88
2020/12/04 13:53:10;;;;;;;223.23;108.97;;;;;;;4.64;77.29;99063.20;4876322;59;1140821;-87
2020/12/04 13:58:55;;;;;;;;;;;;;;;;;;;;;
2020/12/04 14:04:30;;;;;;;144.80;58.52;;;;;;;4.65;77.39;99069.63;4831832;58;1140751;-87
2020/12/04 14:10:01;;;;;;;;;;;;;;;;;;;;;
2020/12/04 14:15:09;;;;;;;125.47;53.03;;;;;;;4.62;77.54;99068.55;4871259;59;1141212;-87
2020/12/04 14:20:14;;;;;;;259.33;104.27;;;;;;;4.64;77.42;99070.59;4880084;59;1140594;-87
2020/12/04 14:25:20;;;;;;;122.80;51.80;;;;;;;4.63;77.51;99069.39;4902630;58;1140371;-87
2020/12/04 14:30:27;;;;;;;75.93;33.83;;;;;;;4.56;77.76;99061.19;4856455;58;1142449;-86
2020/12/04 14:35:33;;;;;;;127.67;55.83;;;;;;;4.54;77.77;99061.77;4893235;59;1136446;-86
2020/12/04 14:40:38;;;;;;;87.03;41.57;;;;;;;4.51;78.00;99070.69;4874400;58;1140637;-86
2020/12/04 14:45:44;;;;;;;51.20;24.57;;;;;;;4.49;78.32;99079.13;4884634;59;1136313;-86
2020/12/04 14:50:50;;;;;;;58.75;26.40;;;;;;;4.49;78.41;99073.06;4844952;59;1136512;-86
2020/12/04 14:55:57;;;;;;;71.17;33.97;;;;;;;4.52;78.50;99073.66;4832107;59;1139020;-86
2020/12/04 15:01:03;;;;;;;232.23;89.97;;;;;;;4.52;78.56;99062.36;4833290;59;1136624;-86
2020/12/04 15:06:12;;;;;;;101.47;45.63;;;;;;;4.55;78.42;99060.34;4827910;59;1140925;-87
2020/12/04 15:11:17;;;;;;;84.62;35.30;;;;;;;4.54;78.33;99077.01;4821041;59;1138809;-86
2020/12/04 15:16:23;;;;;;;147.13;49.27;;;;;;;4.54;78.37;99073.08;4746716;60;1136824;-86
2020/12/04 15:21:28;;;;;;;64.20;27.37;;;;;;;4.57;78.19;99074.16;4823143;59;1140973;-83
2020/12/04 15:26:34;;;;;;;59.13;25.50;;;;;;;4.55;78.07;99079.16;4843526;60;1136431;-83
2020/12/04 15:31:39;;;;;;;66.67;29.27;;;;;;;4.55;78.17;99079.98;4827382;59;1136812;-83
2020/12/04 15:36:45;;;;;;;88.53;36.50;;;;;;;4.60;78.06;99079.62;4826235;59;1138597;-83
2020/12/04 15:41:50;;;;;;;77.23;36.17;;;;;;;4.62;78.06;99085.58;4946191;58;1136320;-82
2020/12/04 15:46:57;;;;;;;76.90;33.33;;;;;;;4.62;78.06;99077.72;4920772;58;1136444;-83
2020/12/04 15:52:04;;;;;;;85.47;38.53;;;;;;;4.66;77.92;99077.02;4826349;59;1138362;-83
2020/12/04 15:57:10;;;;;;;71.60;29.37;;;;;;;4.65;77.78;99079.27;4926012;58;1136507;-83
2020/12/04 16:02:16;;;;;;;61.63;24.25;;;;;;;4.65;78.02;99091.89;4927494;58;1136595;-84
2020/12/04 16:07:21;;;;;;;68.10;29.30;;;;;;;4.67;77.86;99086.55;4922042;58;1138747;-84
2020/12/04 16:12:27;;;;;;;64.83;25.70;;;;;;;4.67;77.98;99082.62;4871746;59;1136227;-83
2020/12/04 16:17:33;;;;;;;75.40;33.57;;;;;;;4.65;78.14;99087.97;4861918;58;1136265;-84
2020/12/04 16:22:38;;;;;;;80.00;38.70;;;;;;;4.66;77.92;99102.73;4859410;59;1136276;-84
2020/12/04 16:27:44;;;;;;;175.47;73.53;;;;;;;4.69;77.91;99101.20;4850203;58;1138380;-83
2020/12/04 16:32:50;;;;;;;115.63;48.83;;;;;;;4.68;77.86;99088.21;4746024;59;1138339;-83
2020/12/04 16:38:04;;;;;;;77.17;35.23;;;;;;;4.62;77.81;99093.91;4742164;60;1138291;-82
2020/12/04 16:43:16;;;;;;;58.63;27.73;;;;;;;4.57;77.67;99088.56;4695343;60;1139106;-83
2020/12/04 16:48:30;;;;;;;62.30;28.17;;;;;;;4.50;77.81;99095.20;4676808;60;1136667;-83
2020/12/04 16:53:43;;;;;;;88.40;50.55;;;;;;;4.42;78.00;99091.03;4679176;60;1137085;-83
2020/12/04 16:58:49;;;;;;;118.93;58.07;;;;;;;4.38;78.11;99092.67;4686473;59;1138490;-83
2020/12/04 17:03:55;;;;;;;96.40;45.00;;;;;;;4.35;78.16;99095.52;4782100;59;1138353;-82
2020/12/04 17:09:00;;;;;;;64.73;30.37;;;;;;;4.31;78.36;99102.75;4762100;59;1136433;-83
2020/12/04 17:14:06;;;;;;;315.47;124.00;;;;;;;4.30;78.26;99115.47;4756301;59;1136546;-83
2020/12/04 17:19:36;;;;;;;141.70;66.20;;;;;;;4.30;78.29;99117.25;4760901;59;1142678;-82
2020/12/04 17:24:54;;;;;;;144.27;61.53;;;;;;;4.27;78.36;99132.73;4730760;60;1138427;-82
2020/12/04 17:30:31;;;;;;;190.80;79.83;;;;;;;4.22;78.40;99109.98;4580446;62;1138698;-83
2020/12/04 17:35:50;;;;;;;111.93;50.30;;;;;;;4.20;78.43;99122.34;4592605;63;1140581;-83
2020/12/04 17:41:18;;;;;;;;;;;;;;;;;;;;;
2020/12/04 17:46:36;;;;;;;113.52;47.90;;;;;;;4.13;78.70;99107.56;4613682;62;1138551;-83
2020/12/04 17:52:05;;;;;;;109.43;47.53;;;;;;;4.06;79.04;99106.36;4580784;62;1138303;-83
2020/12/04 17:57:07;;;;;;;142.47;62.40;;;;;;;4.07;79.10;99101.48;4601362;63;1139021;-83
2020/12/04 18:02:13;;;;;;;98.80;48.57;;;;;;;4.07;79.27;99106.72;4601904;62;1140602;-83
2020/12/04 18:07:19;;;;;;;110.43;48.60;;;;;;;4.06;79.57;99114.68;4602379;62;1136747;-83
2020/12/04 18:12:26;;;;;;;92.10;44.63;;;;;;;4.05;79.71;99115.16;4620149;62;1138892;-83
2020/12/04 18:17:32;;;;;;;72.78;33.28;;;;;;;4.09;79.68;99121.00;4602571;62;1136842;-83
2020/12/04 18:22:37;;;;;;;70.10;31.67;;;;;;;4.12;79.60;99112.46;4615813;62;1138335;-83
2020/12/04 18:27:43;;;;;;;83.63;39.30;;;;;;;4.15;79.71;99120.53;4641139;62;1136384;-83
2020/12/04 18:32:48;;;;;;;63.23;33.07;;;;;;;4.16;79.75;99113.88;4649435;61;1136587;-82
2020/12/04 18:37:55;;;;;;;247.83;142.57;;;;;;;4.17;79.77;99123.41;4576944;62;1138761;-82
2020/12/04 18:43:00;;;;;;;109.03;57.57;;;;;;;4.22;79.77;99126.52;4561356;62;1143152;-82
2020/12/04 18:48:06;;;;;;;335.53;133.60;;;;;;;4.21;80.43;99140.55;4665736;61;1138423;-83
2020/12/04 18:53:11;;;;;;;209.40;86.37;;;;;;;4.23;80.13;99128.67;4624539;62;1140594;-82
2020/12/04 18:58:17;;;;;;;304.65;117.50;;;;;;;4.29;80.07;99134.73;4623390;62;1140842;-85
2020/12/04 19:03:22;;;;;;;118.40;49.05;;;;;;;4.29;80.10;99143.06;4628293;61;1142806;-84
2020/12/04 19:08:28;;;;;;;116.77;58.00;;;;;;;4.30;80.18;99144.27;4623604;62;1138692;-84
2020/12/04 19:13:34;;;;;;;127.20;52.88;;;;;;;4.21;80.32;99139.25;4742161;59;1138995;-83
2020/12/04 19:18:40;;;;;;;1157.85;577.17;;;;;;;4.28;80.24;99142.73;4765532;60;1141384;-83
2020/12/04 19:23:46;;;;;;;1516.10;745.30;;;;;;;4.29;80.20;99141.28;4769796;60;1144806;-83
2020/12/04 19:28:51;;;;;;;316.17;165.57;;;;;;;4.29;80.33;99157.45;4812052;59;1143091;-83
2020/12/04 19:33:57;;;;;;;145.30;81.07;;;;;;;4.26;80.36;99155.09;4808200;59;1140850;-83
2020/12/04 19:39:04;;;;;;;90.47;40.27;;;;;;;4.26;80.47;99156.40;4766066;60;1138922;-83
2020/12/04 19:44:10;;;;;;;73.07;33.63;;;;;;;4.23;81.00;99160.07;4786296;60;1138658;-84
2020/12/04 19:49:16;;;;;;;59.67;25.77;;;;;;;4.28;81.25;99155.31;4901508;58;1138333;-83
2020/12/04 19:54:24;;;;;;;60.63;27.70;;;;;;;4.29;81.62;99146.98;4786308;60;1136427;-82
2020/12/04 19:59:30;;;;;;;53.03;26.10;;;;;;;4.35;81.50;99157.86;4921234;58;1136102;-83
2020/12/04 20:04:35;;;;;;;47.33;24.87;;;;;;;4.43;81.78;99162.55;4901628;58;1138991;-83
2020/12/04 20:09:41;;;;;;;42.23;21.13;;;;;;;4.49;81.92;99169.45;4938310;57;1136202;-83
2020/12/04 20:14:47;;;;;;;52.43;22.53;;;;;;;4.57;81.76;99165.80;4925703;57;1136351;-83
2020/12/04 20:19:52;;;;;;;41.10;19.27;;;;;;;4.66;81.63;99164.73;4893172;58;1138421;-83
2020/12/04 20:24:58;;;;;;;42.80;21.77;;;;;;;4.71;81.61;99165.24;4777056;59;1136331;-83
2020/12/04 20:30:04;;;;;;;56.10;25.47;;;;;;;4.75;81.45;99174.04;4816520;60;1138285;-83
2020/12/04 20:35:09;;;;;;;41.77;19.80;;;;;;;4.82;81.35;99175.27;4777196;60;1138706;-83
2020/12/04 20:40:15;;;;;;;43.70;20.33;;;;;;;4.80;81.40;99182.88;4739510;59;1136424;-83
2020/12/04 20:45:20;;;;;;;37.57;19.90;;;;;;;4.86;81.16;99191.12;4749159;60;1138964;-83
2020/12/04 20:50:26;;;;;;;36.15;18.50;;;;;;;4.89;81.16;99198.72;4887102;58;1138495;-83
2020/12/04 20:55:32;;;;;;;48.33;23.43;;;;;;;4.85;81.04;99192.54;4783701;60;1136483;-83
2020/12/04 21:00:37;;;;;;;77.80;36.97;;;;;;;4.85;80.84;99197.30;4727193;60;1138719;-83
2020/12/04 21:05:43;;;;;;;55.00;31.40;;;;;;;4.86;80.66;99206.00;4890377;58;1138651;-83
2020/12/04 21:10:48;;;;;;;52.17;25.80;;;;;;;4.79;80.95;99200.37;4929942;58;1136197;-83
2020/12/04 21:15:54;;;;;;;44.40;21.87;;;;;;;4.73;81.00;99202.16;4799829;58;1136458;-83
2020/12/04 21:21:04;;;;;;;48.85;22.93;;;;;;;4.74;80.94;99194.63;4925885;58;1138217;-83
2020/12/04 21:26:10;;;;;;;43.93;20.73;;;;;;;4.75;80.96;99204.63;4504071;64;1138535;-83
2020/12/04 21:31:20;;;;;;;39.25;18.60;;;;;;;4.75;81.18;99211.18;4504525;64;1136866;-85
2020/12/04 21:36:26;;;;;;;39.33;20.70;;;;;;;4.78;81.14;99203.94;4358660;65;1136344;-84
2020/12/04 21:41:33;;;;;;;40.60;19.80;;;;;;;4.84;80.81;99211.34;4492824;64;1138783;-83
2020/12/04 21:46:39;;;;;;;40.17;19.87;;;;;;;4.87;80.81;99218.98;4483268;64;1136578;-83
2020/12/04 21:51:48;;;;;;;32.93;17.97;;;;;;;4.91;80.50;99220.41;4481271;64;1136433;-83
2020/12/04 21:56:58;;;;;;;44.97;22.83;;;;;;;4.95;80.25;99230.19;4456033;64;1138379;-83
2020/12/04 22:02:06;;;;;;;47.97;23.50;;;;;;;4.93;80.05;99238.63;4579337;59;1136336;-83
2020/12/04 22:07:12;;;;;;;63.20;32.53;;;;;;;4.87;79.86;99239.11;4902105;59;1136418;-83
2020/12/04 22:12:18;;;;;;;53.53;25.80;;;;;;;4.79;79.63;99239.66;4810850;60;1138344;-83
2020/12/04 22:17:23;;;;;;;44.10;19.83;;;;;;;4.69;79.57;99241.30;4911360;59;1136356;-83
2020/12/04 22:22:30;;;;;;;45.80;22.42;;;;;;;4.57;79.75;99236.97;4778239;60;1136425;-83
2020/12/04 22:27:35;;;;;;;52.80;22.20;;;;;;;4.49;79.74;99245.38;4817494;60;1138695;-83
2020/12/04 22:32:42;;;;;;;41.77;21.30;;;;;;;4.42;79.94;99244.63;4872721;60;1134253;-83
2020/12/04 22:37:51;;;;;;;41.87;18.97;;;;;;;4.33;80.20;99242.19;4870871;58;1136236;-83
2020/12/04 22:42:55;;;;;;;46.13;21.00;;;;;;;4.29;80.27;99240.73;4875671;58;1136121;-83
2020/12/04 22:48:00;;;;;;;41.43;19.53;;;;;;;4.29;80.46;99253.81;4899308;58;1138388;-83
2020/12/04 22:53:06;;;;;;;35.67;19.27;;;;;;;4.28;80.49;99256.07;4870596;58;1138282;-83
2020/12/04 22:58:11;;;;;;;37.70;19.63;;;;;;;4.26;80.69;99256.69;4887320;58;1136226;-83
2020/12/04 23:03:18;;;;;;;38.33;17.47;;;;;;;4.25;80.56;99253.70;4866603;58;1136226;-83
2020/12/04 23:08:23;;;;;;;42.20;20.37;;;;;;;4.26;80.65;99254.06;4841489;60;1138749;-83
2020/12/04 23:13:29;;;;;;;50.90;21.73;;;;;;;4.24;80.56;99254.64;4867744;58;1136518;-84
2020/12/04 23:18:34;;;;;;;39.20;17.17;;;;;;;4.18;80.56;99248.53;4888728;57;1136149;-83
2020/12/04 23:23:40;;;;;;;47.87;18.50;;;;;;;4.17;80.87;99252.09;4912870;58;1136481;-83
2020/12/04 23:28:45;;;;;;;46.77;20.17;;;;;;;4.19;80.69;99250.20;4894802;59;1139173;-83